sensor_id;sensor_type;location;lat;lon;timestamp;P1;durP1;ratioP1;P2;durP2;ratioP2
38358;SDS011;42072;48.044;14.416;2023-07-09T00:01:28;12.00;;;7.88;;
38358;SDS011;42072;48.044;14.416;2023-07-09T00:03:55;10.75;;;7.93;;
38358;SDS011;42072;48.044;14.416;2023-07-09T00:06:23;10.70;;;7.18;;
38358;SDS011;42072;48.044;14.416;2023-07-09T00:08:50;10.77;;;7.50;;
38358;SDS011;42072;48.044;14.416;2023-07-09T00:11:17;10.40;;;7.53;;
38358;SDS011;42072;48.044;14.416;2023-07-09T00:13:44;10.32;;;7.68;;
38358;SDS011;42072;48.044;14.416;2023-07-09T00:16:16;11.20;;;7.15;;
38358;SDS011;42072;48.044;14.416;2023-07-09T00:18:49;10.73;;;8.48;;
38358;SDS011;42072;48.044;14.416;2023-07-09T00:21:17;11.80;;;7.65;;
38358;SDS011;42072;48.044;14.416;2023-07-09T00:23:46;11.20;;;8.00;;
38358;SDS011;42072;48.044;14.416;2023-07-09T00:26:16;11.95;;;7.93;;
38358;SDS011;42072;48.044;14.416;2023-07-09T00:28:44;14.07;;;7.88;;
38358;SDS011;42072;48.044;14.416;2023-07-09T00:31:12;11.27;;;7.35;;
38358;SDS011;42072;48.044;14.416;2023-07-09T00:33:42;10.65;;;8.20;;
38358;SDS011;42072;48.044;14.416;2023-07-09T00:36:20;11.05;;;7.47;;
38358;SDS011;42072;48.044;14.416;2023-07-09T00:38:53;12.02;;;7.80;;
38358;SDS011;42072;48.044;14.416;2023-07-09T00:41:22;10.13;;;6.78;;
38358;SDS011;42072;48.044;14.416;2023-07-09T00:43:50;9.70;;;7.82;;
38358;SDS011;42072;48.044;14.416;2023-07-09T00:48:54;10.02;;;6.95;;
38358;SDS011;42072;48.044;14.416;2023-07-09T00:51:26;11.38;;;7.60;;
38358;SDS011;42072;48.044;14.416;2023-07-09T00:53:57;8.90;;;7.15;;
38358;SDS011;42072;48.044;14.416;2023-07-09T00:56:28;9.48;;;6.93;;
38358;SDS011;42072;48.044;14.416;2023-07-09T00:59:00;9.77;;;6.75;;
38358;SDS011;42072;48.044;14.416;2023-07-09T01:01:32;9.57;;;6.68;;
38358;SDS011;42072;48.044;14.416;2023-07-09T01:04:02;10.18;;;6.78;;
38358;SDS011;42072;48.044;14.416;2023-07-09T01:06:37;9.90;;;6.63;;
38358;SDS011;42072;48.044;14.416;2023-07-09T01:09:10;8.98;;;6.60;;
38358;SDS011;42072;48.044;14.416;2023-07-09T01:11:38;8.68;;;6.55;;
38358;SDS011;42072;48.044;14.416;2023-07-09T01:14:06;10.48;;;6.80;;
38358;SDS011;42072;48.044;14.416;2023-07-09T01:16:41;8.48;;;6.55;;
38358;SDS011;42072;48.044;14.416;2023-07-09T01:19:12;13.80;;;7.22;;
38358;SDS011;42072;48.044;14.416;2023-07-09T01:21:40;10.32;;;6.63;;
38358;SDS011;42072;48.044;14.416;2023-07-09T01:24:14;8.95;;;6.45;;
38358;SDS011;42072;48.044;14.416;2023-07-09T01:26:53;8.55;;;6.45;;
38358;SDS011;42072;48.044;14.416;2023-07-09T01:29:20;9.73;;;6.38;;
38358;SDS011;42072;48.044;14.416;2023-07-09T01:31:47;8.82;;;6.03;;
38358;SDS011;42072;48.044;14.416;2023-07-09T01:34:18;8.18;;;6.70;;
38358;SDS011;42072;48.044;14.416;2023-07-09T01:36:48;13.32;;;6.55;;
38358;SDS011;42072;48.044;14.416;2023-07-09T01:39:15;12.70;;;7.18;;
38358;SDS011;42072;48.044;14.416;2023-07-09T01:41:42;9.38;;;6.35;;
38358;SDS011;42072;48.044;14.416;2023-07-09T01:44:09;9.00;;;6.80;;
38358;SDS011;42072;48.044;14.416;2023-07-09T01:46:38;8.98;;;6.75;;
38358;SDS011;42072;48.044;14.416;2023-07-09T01:49:05;10.73;;;7.25;;
38358;SDS011;42072;48.044;14.416;2023-07-09T01:51:33;11.10;;;7.82;;
38358;SDS011;42072;48.044;14.416;2023-07-09T01:54:02;11.18;;;7.35;;
38358;SDS011;42072;48.044;14.416;2023-07-09T01:56:30;12.30;;;7.07;;
38358;SDS011;42072;48.044;14.416;2023-07-09T01:58:57;11.82;;;7.38;;
38358;SDS011;42072;48.044;14.416;2023-07-09T02:01:28;8.95;;;6.78;;
38358;SDS011;42072;48.044;14.416;2023-07-09T02:03:55;9.30;;;6.95;;
38358;SDS011;42072;48.044;14.416;2023-07-09T02:06:23;7.68;;;6.10;;
38358;SDS011;42072;48.044;14.416;2023-07-09T02:08:51;10.43;;;7.43;;
38358;SDS011;42072;48.044;14.416;2023-07-09T02:11:18;11.25;;;7.22;;
38358;SDS011;42072;48.044;14.416;2023-07-09T02:13:45;9.35;;;6.75;;
38358;SDS011;42072;48.044;14.416;2023-07-09T02:16:12;11.45;;;7.45;;
38358;SDS011;42072;48.044;14.416;2023-07-09T02:18:39;10.13;;;6.60;;
38358;SDS011;42072;48.044;14.416;2023-07-09T02:21:07;9.10;;;6.72;;
38358;SDS011;42072;48.044;14.416;2023-07-09T02:23:35;10.57;;;7.07;;
38358;SDS011;42072;48.044;14.416;2023-07-09T02:26:02;11.25;;;6.55;;
38358;SDS011;42072;48.044;14.416;2023-07-09T02:28:30;10.05;;;6.90;;
38358;SDS011;42072;48.044;14.416;2023-07-09T02:30:57;9.38;;;7.10;;
38358;SDS011;42072;48.044;14.416;2023-07-09T02:33:24;9.00;;;6.95;;
38358;SDS011;42072;48.044;14.416;2023-07-09T02:35:51;9.95;;;6.70;;
38358;SDS011;42072;48.044;14.416;2023-07-09T02:38:18;8.95;;;6.63;;
38358;SDS011;42072;48.044;14.416;2023-07-09T02:40:45;8.32;;;6.57;;
38358;SDS011;42072;48.044;14.416;2023-07-09T02:43:13;10.30;;;6.93;;
38358;SDS011;42072;48.044;14.416;2023-07-09T02:45:40;10.38;;;7.25;;
38358;SDS011;42072;48.044;14.416;2023-07-09T02:48:07;9.90;;;6.97;;
38358;SDS011;42072;48.044;14.416;2023-07-09T02:50:34;11.63;;;7.07;;
38358;SDS011;42072;48.044;14.416;2023-07-09T02:53:01;11.18;;;7.05;;
38358;SDS011;42072;48.044;14.416;2023-07-09T02:55:28;8.43;;;6.60;;
38358;SDS011;42072;48.044;14.416;2023-07-09T02:57:56;9.65;;;6.68;;
38358;SDS011;42072;48.044;14.416;2023-07-09T03:00:23;8.02;;;6.65;;
38358;SDS011;42072;48.044;14.416;2023-07-09T03:02:50;11.05;;;6.80;;
38358;SDS011;42072;48.044;14.416;2023-07-09T03:05:17;9.23;;;7.10;;
38358;SDS011;42072;48.044;14.416;2023-07-09T03:07:44;9.15;;;6.88;;
38358;SDS011;42072;48.044;14.416;2023-07-09T03:10:12;9.02;;;7.10;;
38358;SDS011;42072;48.044;14.416;2023-07-09T03:12:39;9.40;;;7.25;;
38358;SDS011;42072;48.044;14.416;2023-07-09T03:15:06;10.15;;;7.32;;
38358;SDS011;42072;48.044;14.416;2023-07-09T03:17:33;12.40;;;6.90;;
38358;SDS011;42072;48.044;14.416;2023-07-09T03:20:01;10.70;;;7.10;;
38358;SDS011;42072;48.044;14.416;2023-07-09T03:22:28;10.13;;;7.60;;
38358;SDS011;42072;48.044;14.416;2023-07-09T03:24:55;11.50;;;6.97;;
38358;SDS011;42072;48.044;14.416;2023-07-09T03:27:22;9.73;;;7.25;;
38358;SDS011;42072;48.044;14.416;2023-07-09T03:29:49;10.00;;;7.13;;
38358;SDS011;42072;48.044;14.416;2023-07-09T03:32:16;11.43;;;7.10;;
38358;SDS011;42072;48.044;14.416;2023-07-09T03:34:43;13.05;;;7.90;;
38358;SDS011;42072;48.044;14.416;2023-07-09T03:37:10;8.10;;;6.60;;
38358;SDS011;42072;48.044;14.416;2023-07-09T03:39:37;8.35;;;6.40;;
38358;SDS011;42072;48.044;14.416;2023-07-09T03:42:04;8.07;;;6.30;;
38358;SDS011;42072;48.044;14.416;2023-07-09T03:44:32;10.85;;;6.45;;
38358;SDS011;42072;48.044;14.416;2023-07-09T03:46:59;9.48;;;6.43;;
38358;SDS011;42072;48.044;14.416;2023-07-09T03:49:26;9.40;;;6.88;;
38358;SDS011;42072;48.044;14.416;2023-07-09T03:51:53;10.82;;;6.75;;
38358;SDS011;42072;48.044;14.416;2023-07-09T03:54:20;9.38;;;6.55;;
38358;SDS011;42072;48.044;14.416;2023-07-09T03:56:49;9.18;;;6.50;;
38358;SDS011;42072;48.044;14.416;2023-07-09T03:59:16;11.40;;;6.80;;
38358;SDS011;42072;48.044;14.416;2023-07-09T04:01:44;11.50;;;6.68;;
38358;SDS011;42072;48.044;14.416;2023-07-09T04:04:13;13.60;;;7.30;;
38358;SDS011;42072;48.044;14.416;2023-07-09T04:06:40;10.90;;;7.43;;
38358;SDS011;42072;48.044;14.416;2023-07-09T04:09:07;9.30;;;6.90;;
38358;SDS011;42072;48.044;14.416;2023-07-09T04:11:34;10.68;;;6.93;;
38358;SDS011;42072;48.044;14.416;2023-07-09T04:14:01;10.32;;;6.68;;
38358;SDS011;42072;48.044;14.416;2023-07-09T04:16:29;10.80;;;6.95;;
38358;SDS011;42072;48.044;14.416;2023-07-09T04:18:56;15.40;;;6.90;;
38358;SDS011;42072;48.044;14.416;2023-07-09T04:21:23;10.55;;;6.68;;
38358;SDS011;42072;48.044;14.416;2023-07-09T04:23:50;11.73;;;6.50;;
38358;SDS011;42072;48.044;14.416;2023-07-09T04:26:17;12.63;;;6.55;;
38358;SDS011;42072;48.044;14.416;2023-07-09T04:28:44;10.23;;;6.80;;
38358;SDS011;42072;48.044;14.416;2023-07-09T04:31:11;10.85;;;6.75;;
38358;SDS011;42072;48.044;14.416;2023-07-09T04:33:38;10.63;;;6.45;;
38358;SDS011;42072;48.044;14.416;2023-07-09T04:36:05;11.35;;;5.90;;
38358;SDS011;42072;48.044;14.416;2023-07-09T04:38:35;11.80;;;6.65;;
38358;SDS011;42072;48.044;14.416;2023-07-09T04:41:02;8.23;;;6.07;;
38358;SDS011;42072;48.044;14.416;2023-07-09T04:43:30;10.23;;;6.18;;
38358;SDS011;42072;48.044;14.416;2023-07-09T04:45:58;8.82;;;6.20;;
38358;SDS011;42072;48.044;14.416;2023-07-09T04:48:25;8.32;;;5.90;;
38358;SDS011;42072;48.044;14.416;2023-07-09T04:50:52;10.20;;;5.88;;
38358;SDS011;42072;48.044;14.416;2023-07-09T04:53:19;8.75;;;6.40;;
38358;SDS011;42072;48.044;14.416;2023-07-09T04:55:46;8.13;;;5.97;;
38358;SDS011;42072;48.044;14.416;2023-07-09T04:58:14;7.07;;;6.00;;
38358;SDS011;42072;48.044;14.416;2023-07-09T05:00:42;10.35;;;6.10;;
38358;SDS011;42072;48.044;14.416;2023-07-09T05:03:09;7.38;;;5.65;;
38358;SDS011;42072;48.044;14.416;2023-07-09T05:05:43;7.90;;;5.38;;
38358;SDS011;42072;48.044;14.416;2023-07-09T05:08:12;7.68;;;5.70;;
38358;SDS011;42072;48.044;14.416;2023-07-09T05:10:41;8.13;;;6.13;;
38358;SDS011;42072;48.044;14.416;2023-07-09T05:13:09;8.73;;;6.05;;
38358;SDS011;42072;48.044;14.416;2023-07-09T05:15:39;8.45;;;5.55;;
38358;SDS011;42072;48.044;14.416;2023-07-09T05:18:08;8.30;;;6.20;;
38358;SDS011;42072;48.044;14.416;2023-07-09T05:20:35;8.00;;;5.88;;
38358;SDS011;42072;48.044;14.416;2023-07-09T05:23:02;10.35;;;6.45;;
38358;SDS011;42072;48.044;14.416;2023-07-09T05:25:29;10.90;;;6.10;;
38358;SDS011;42072;48.044;14.416;2023-07-09T05:27:57;8.57;;;5.80;;
38358;SDS011;42072;48.044;14.416;2023-07-09T05:30:24;8.02;;;6.13;;
38358;SDS011;42072;48.044;14.416;2023-07-09T05:32:52;9.35;;;6.30;;
38358;SDS011;42072;48.044;14.416;2023-07-09T05:35:22;9.25;;;6.10;;
38358;SDS011;42072;48.044;14.416;2023-07-09T05:37:53;7.03;;;5.65;;
38358;SDS011;42072;48.044;14.416;2023-07-09T05:40:21;8.00;;;5.88;;
38358;SDS011;42072;48.044;14.416;2023-07-09T05:42:48;9.20;;;6.30;;
38358;SDS011;42072;48.044;14.416;2023-07-09T05:45:15;9.38;;;6.15;;
38358;SDS011;42072;48.044;14.416;2023-07-09T05:47:43;8.18;;;5.53;;
38358;SDS011;42072;48.044;14.416;2023-07-09T05:50:10;9.05;;;5.93;;
38358;SDS011;42072;48.044;14.416;2023-07-09T05:52:37;8.30;;;6.20;;
38358;SDS011;42072;48.044;14.416;2023-07-09T05:55:04;9.00;;;5.82;;
38358;SDS011;42072;48.044;14.416;2023-07-09T05:57:32;7.72;;;5.60;;
38358;SDS011;42072;48.044;14.416;2023-07-09T05:59:59;9.70;;;6.28;;
38358;SDS011;42072;48.044;14.416;2023-07-09T06:02:26;9.15;;;6.22;;
38358;SDS011;42072;48.044;14.416;2023-07-09T06:04:53;10.60;;;5.72;;
38358;SDS011;42072;48.044;14.416;2023-07-09T06:07:21;7.35;;;5.90;;
38358;SDS011;42072;48.044;14.416;2023-07-09T06:09:48;10.20;;;6.20;;
38358;SDS011;42072;48.044;14.416;2023-07-09T06:12:15;9.27;;;5.88;;
38358;SDS011;42072;48.044;14.416;2023-07-09T06:14:43;7.47;;;5.90;;
38358;SDS011;42072;48.044;14.416;2023-07-09T06:17:10;8.55;;;5.78;;
38358;SDS011;42072;48.044;14.416;2023-07-09T06:19:38;9.20;;;6.43;;
38358;SDS011;42072;48.044;14.416;2023-07-09T06:22:06;8.60;;;6.60;;
38358;SDS011;42072;48.044;14.416;2023-07-09T06:24:33;10.90;;;6.00;;
38358;SDS011;42072;48.044;14.416;2023-07-09T06:27:00;6.43;;;5.80;;
38358;SDS011;42072;48.044;14.416;2023-07-09T06:29:27;6.75;;;5.55;;
38358;SDS011;42072;48.044;14.416;2023-07-09T06:31:54;9.23;;;5.85;;
38358;SDS011;42072;48.044;14.416;2023-07-09T06:34:21;7.70;;;5.70;;
38358;SDS011;42072;48.044;14.416;2023-07-09T06:36:48;10.68;;;6.22;;
38358;SDS011;42072;48.044;14.416;2023-07-09T06:39:15;6.85;;;5.80;;
38358;SDS011;42072;48.044;14.416;2023-07-09T06:41:46;7.20;;;5.90;;
38358;SDS011;42072;48.044;14.416;2023-07-09T06:44:13;10.98;;;6.38;;
38358;SDS011;42072;48.044;14.416;2023-07-09T06:46:40;9.23;;;6.20;;
38358;SDS011;42072;48.044;14.416;2023-07-09T06:49:07;9.70;;;6.20;;
38358;SDS011;42072;48.044;14.416;2023-07-09T06:51:34;9.75;;;5.85;;
38358;SDS011;42072;48.044;14.416;2023-07-09T06:54:02;9.20;;;6.20;;
38358;SDS011;42072;48.044;14.416;2023-07-09T06:56:29;10.30;;;5.95;;
38358;SDS011;42072;48.044;14.416;2023-07-09T06:58:56;9.85;;;6.50;;
38358;SDS011;42072;48.044;14.416;2023-07-09T07:01:23;9.88;;;6.45;;
38358;SDS011;42072;48.044;14.416;2023-07-09T07:03:50;10.32;;;6.00;;
38358;SDS011;42072;48.044;14.416;2023-07-09T07:06:18;8.35;;;6.28;;
38358;SDS011;42072;48.044;14.416;2023-07-09T07:08:45;9.05;;;6.03;;
38358;SDS011;42072;48.044;14.416;2023-07-09T07:11:12;7.50;;;5.97;;
38358;SDS011;42072;48.044;14.416;2023-07-09T07:13:40;8.77;;;6.05;;
38358;SDS011;42072;48.044;14.416;2023-07-09T07:16:11;10.15;;;6.45;;
38358;SDS011;42072;48.044;14.416;2023-07-09T07:18:39;8.63;;;6.15;;
38358;SDS011;42072;48.044;14.416;2023-07-09T07:21:07;9.95;;;6.28;;
38358;SDS011;42072;48.044;14.416;2023-07-09T07:23:34;8.00;;;6.60;;
38358;SDS011;42072;48.044;14.416;2023-07-09T07:26:02;7.65;;;6.25;;
38358;SDS011;42072;48.044;14.416;2023-07-09T07:28:30;9.40;;;6.32;;
38358;SDS011;42072;48.044;14.416;2023-07-09T07:31:07;9.70;;;6.57;;
38358;SDS011;42072;48.044;14.416;2023-07-09T07:33:37;7.88;;;6.25;;
38358;SDS011;42072;48.044;14.416;2023-07-09T07:36:06;8.70;;;6.45;;
38358;SDS011;42072;48.044;14.416;2023-07-09T07:38:37;9.38;;;6.28;;
38358;SDS011;42072;48.044;14.416;2023-07-09T07:41:04;8.93;;;6.68;;
38358;SDS011;42072;48.044;14.416;2023-07-09T07:43:31;8.15;;;6.68;;
38358;SDS011;42072;48.044;14.416;2023-07-09T07:45:58;8.50;;;6.68;;
38358;SDS011;42072;48.044;14.416;2023-07-09T07:48:26;11.45;;;6.60;;
38358;SDS011;42072;48.044;14.416;2023-07-09T07:50:58;7.90;;;6.07;;
38358;SDS011;42072;48.044;14.416;2023-07-09T07:53:28;9.48;;;6.13;;
38358;SDS011;42072;48.044;14.416;2023-07-09T07:55:57;10.25;;;6.38;;
38358;SDS011;42072;48.044;14.416;2023-07-09T07:58:24;10.02;;;6.22;;
38358;SDS011;42072;48.044;14.416;2023-07-09T08:00:55;9.70;;;6.45;;
38358;SDS011;42072;48.044;14.416;2023-07-09T08:03:23;11.30;;;6.60;;
38358;SDS011;42072;48.044;14.416;2023-07-09T08:05:51;9.88;;;6.07;;
38358;SDS011;42072;48.044;14.416;2023-07-09T08:08:18;11.63;;;6.60;;
38358;SDS011;42072;48.044;14.416;2023-07-09T08:10:46;10.85;;;6.60;;
38358;SDS011;42072;48.044;14.416;2023-07-09T08:13:13;9.13;;;6.40;;
38358;SDS011;42072;48.044;14.416;2023-07-09T08:15:40;8.75;;;5.97;;
38358;SDS011;42072;48.044;14.416;2023-07-09T08:18:09;8.82;;;6.55;;
38358;SDS011;42072;48.044;14.416;2023-07-09T08:20:36;11.60;;;6.78;;
38358;SDS011;42072;48.044;14.416;2023-07-09T08:23:03;10.50;;;6.45;;
38358;SDS011;42072;48.044;14.416;2023-07-09T08:25:30;10.63;;;6.28;;
38358;SDS011;42072;48.044;14.416;2023-07-09T08:27:58;8.50;;;6.38;;
38358;SDS011;42072;48.044;14.416;2023-07-09T08:30:25;10.60;;;6.50;;
38358;SDS011;42072;48.044;14.416;2023-07-09T08:32:52;11.68;;;5.97;;
38358;SDS011;42072;48.044;14.416;2023-07-09T08:35:19;9.13;;;6.32;;
38358;SDS011;42072;48.044;14.416;2023-07-09T08:38:01;11.10;;;6.38;;
38358;SDS011;42072;48.044;14.416;2023-07-09T08:40:28;8.90;;;6.32;;
38358;SDS011;42072;48.044;14.416;2023-07-09T08:42:58;9.70;;;6.40;;
38358;SDS011;42072;48.044;14.416;2023-07-09T08:51:19;10.68;;;8.15;;
38358;SDS011;42072;48.044;14.416;2023-07-09T08:53:49;12.55;;;9.05;;
38358;SDS011;42072;48.044;14.416;2023-07-09T08:56:20;11.68;;;7.10;;
38358;SDS011;42072;48.044;14.416;2023-07-09T08:58:49;9.65;;;6.30;;
38358;SDS011;42072;48.044;14.416;2023-07-09T09:01:20;7.32;;;6.03;;
38358;SDS011;42072;48.044;14.416;2023-07-09T09:03:53;8.13;;;6.43;;
38358;SDS011;42072;48.044;14.416;2023-07-09T09:06:27;10.52;;;6.30;;
38358;SDS011;42072;48.044;14.416;2023-07-09T09:11:47;8.68;;;6.43;;
38358;SDS011;42072;48.044;14.416;2023-07-09T09:14:39;8.82;;;6.72;;
38358;SDS011;42072;48.044;14.416;2023-07-09T09:17:11;10.18;;;6.20;;
38358;SDS011;42072;48.044;14.416;2023-07-09T09:22:15;8.53;;;6.33;;
38358;SDS011;42072;48.044;14.416;2023-07-09T09:27:20;13.73;;;6.55;;
38358;SDS011;42072;48.044;14.416;2023-07-09T09:29:47;10.75;;;6.90;;
38358;SDS011;42072;48.044;14.416;2023-07-09T09:32:20;13.63;;;6.90;;
38358;SDS011;42072;48.044;14.416;2023-07-09T09:34:51;11.43;;;6.53;;
38358;SDS011;42072;48.044;14.416;2023-07-09T09:37:24;7.88;;;6.07;;
38358;SDS011;42072;48.044;14.416;2023-07-09T09:39:58;8.20;;;6.07;;
38358;SDS011;42072;48.044;14.416;2023-07-09T09:42:29;8.88;;;6.20;;
38358;SDS011;42072;48.044;14.416;2023-07-09T09:44:56;11.68;;;6.65;;
38358;SDS011;42072;48.044;14.416;2023-07-09T09:47:25;11.48;;;6.63;;
38358;SDS011;42072;48.044;14.416;2023-07-09T09:49:55;7.90;;;6.30;;
38358;SDS011;42072;48.044;14.416;2023-07-09T09:52:25;10.35;;;6.57;;
38358;SDS011;42072;48.044;14.416;2023-07-09T09:55:02;8.80;;;6.60;;
38358;SDS011;42072;48.044;14.416;2023-07-09T09:57:47;8.88;;;6.20;;
38358;SDS011;42072;48.044;14.416;2023-07-09T10:00:22;7.72;;;5.85;;
38358;SDS011;42072;48.044;14.416;2023-07-09T10:02:58;10.98;;;6.28;;
38358;SDS011;42072;48.044;14.416;2023-07-09T10:05:31;10.88;;;6.53;;
38358;SDS011;42072;48.044;14.416;2023-07-09T10:08:13;11.52;;;6.50;;
38358;SDS011;42072;48.044;14.416;2023-07-09T10:10:48;11.07;;;6.72;;
38358;SDS011;42072;48.044;14.416;2023-07-09T10:13:24;8.75;;;6.30;;
38358;SDS011;42072;48.044;14.416;2023-07-09T10:16:01;9.90;;;6.80;;
38358;SDS011;42072;48.044;14.416;2023-07-09T10:21:33;9.90;;;6.05;;
38358;SDS011;42072;48.044;14.416;2023-07-09T10:24:16;10.88;;;6.32;;
38358;SDS011;42072;48.044;14.416;2023-07-09T10:27:00;7.60;;;5.80;;
38358;SDS011;42072;48.044;14.416;2023-07-09T10:33:01;9.60;;;6.15;;
38358;SDS011;42072;48.044;14.416;2023-07-09T10:35:46;13.05;;;6.90;;
38358;SDS011;42072;48.044;14.416;2023-07-09T10:40:54;10.60;;;6.40;;
38358;SDS011;42072;48.044;14.416;2023-07-09T10:46:28;9.90;;;5.35;;
38358;SDS011;42072;48.044;14.416;2023-07-09T10:48:59;6.93;;;5.43;;
38358;SDS011;42072;48.044;14.416;2023-07-09T10:51:31;7.55;;;5.90;;
38358;SDS011;42072;48.044;14.416;2023-07-09T10:54:14;10.17;;;6.27;;
38358;SDS011;42072;48.044;14.416;2023-07-09T10:56:45;6.43;;;5.13;;
38358;SDS011;42072;48.044;14.416;2023-07-09T11:02:44;12.90;;;5.88;;
38358;SDS011;42072;48.044;14.416;2023-07-09T11:04:47;7.80;;;5.63;;
38358;SDS011;42072;48.044;14.416;2023-07-09T11:07:27;10.15;;;5.88;;
38358;SDS011;42072;48.044;14.416;2023-07-09T11:12:44;7.22;;;5.60;;
38358;SDS011;42072;48.044;14.416;2023-07-09T11:15:27;8.75;;;5.70;;
38358;SDS011;42072;48.044;14.416;2023-07-09T11:18:06;6.68;;;5.10;;
38358;SDS011;42072;48.044;14.416;2023-07-09T11:20:42;7.60;;;5.18;;
38358;SDS011;42072;48.044;14.416;2023-07-09T11:23:24;7.82;;;5.78;;
38358;SDS011;42072;48.044;14.416;2023-07-09T11:26:02;7.75;;;5.28;;
38358;SDS011;42072;48.044;14.416;2023-07-09T11:28:33;8.13;;;5.00;;
38358;SDS011;42072;48.044;14.416;2023-07-09T11:31:08;9.23;;;5.53;;
38358;SDS011;42072;48.044;14.416;2023-07-09T11:33:45;8.37;;;5.00;;
38358;SDS011;42072;48.044;14.416;2023-07-09T11:36:23;6.28;;;4.97;;
38358;SDS011;42072;48.044;14.416;2023-07-09T11:38:51;7.32;;;5.28;;
38358;SDS011;42072;48.044;14.416;2023-07-09T11:42:01;8.60;;;5.00;;
38358;SDS011;42072;48.044;14.416;2023-07-09T11:44:20;6.33;;;4.80;;
38358;SDS011;42072;48.044;14.416;2023-07-09T11:47:01;6.65;;;4.38;;
38358;SDS011;42072;48.044;14.416;2023-07-09T11:49:52;5.85;;;4.82;;
38358;SDS011;42072;48.044;14.416;2023-07-09T11:52:26;7.57;;;4.82;;
38358;SDS011;42072;48.044;14.416;2023-07-09T11:55:11;5.10;;;4.60;;
38358;SDS011;42072;48.044;14.416;2023-07-09T11:58:04;7.40;;;4.50;;
38358;SDS011;42072;48.044;14.416;2023-07-09T12:00:39;6.82;;;4.93;;
38358;SDS011;42072;48.044;14.416;2023-07-09T12:03:19;9.35;;;4.90;;
38358;SDS011;42072;48.044;14.416;2023-07-09T12:06:04;8.40;;;4.85;;
38358;SDS011;42072;48.044;14.416;2023-07-09T12:08:40;8.00;;;4.82;;
38358;SDS011;42072;48.044;14.416;2023-07-09T12:11:28;7.20;;;4.82;;
38358;SDS011;42072;48.044;14.416;2023-07-09T12:14:31;6.22;;;4.63;;
38358;SDS011;42072;48.044;14.416;2023-07-09T12:16:51;6.25;;;5.03;;
38358;SDS011;42072;48.044;14.416;2023-07-09T12:19:20;7.50;;;4.65;;
38358;SDS011;42072;48.044;14.416;2023-07-09T12:21:50;7.38;;;4.53;;
38358;SDS011;42072;48.044;14.416;2023-07-09T12:24:25;8.83;;;4.70;;
38358;SDS011;42072;48.044;14.416;2023-07-09T12:26:55;8.40;;;5.05;;
38358;SDS011;42072;48.044;14.416;2023-07-09T12:29:28;7.55;;;5.10;;
38358;SDS011;42072;48.044;14.416;2023-07-09T12:32:03;7.55;;;5.10;;
38358;SDS011;42072;48.044;14.416;2023-07-09T12:34:38;7.22;;;5.18;;
38358;SDS011;42072;48.044;14.416;2023-07-09T12:37:08;7.90;;;5.28;;
38358;SDS011;42072;48.044;14.416;2023-07-09T12:39:40;6.22;;;4.80;;
38358;SDS011;42072;48.044;14.416;2023-07-09T12:42:23;6.22;;;5.03;;
38358;SDS011;42072;48.044;14.416;2023-07-09T12:44:56;9.52;;;5.28;;
38358;SDS011;42072;48.044;14.416;2023-07-09T12:47:24;9.98;;;6.72;;
38358;SDS011;42072;48.044;14.416;2023-07-09T12:49:52;6.00;;;4.55;;
38358;SDS011;42072;48.044;14.416;2023-07-09T12:52:28;8.10;;;5.20;;
38358;SDS011;42072;48.044;14.416;2023-07-09T12:54:56;6.63;;;4.93;;
38358;SDS011;42072;48.044;14.416;2023-07-09T12:57:28;7.93;;;5.53;;
38358;SDS011;42072;48.044;14.416;2023-07-09T12:59:57;8.52;;;4.93;;
38358;SDS011;42072;48.044;14.416;2023-07-09T13:02:25;8.73;;;5.57;;
38358;SDS011;42072;48.044;14.416;2023-07-09T13:05:05;8.00;;;4.88;;
38358;SDS011;42072;48.044;14.416;2023-07-09T13:07:42;7.25;;;5.05;;
38358;SDS011;42072;48.044;14.416;2023-07-09T13:10:23;8.05;;;5.53;;
38358;SDS011;42072;48.044;14.416;2023-07-09T13:13:03;5.25;;;4.68;;
38358;SDS011;42072;48.044;14.416;2023-07-09T13:18:11;6.55;;;4.75;;
38358;SDS011;42072;48.044;14.416;2023-07-09T13:20:42;8.60;;;4.47;;
38358;SDS011;42072;48.044;14.416;2023-07-09T13:23:13;6.60;;;5.10;;
38358;SDS011;42072;48.044;14.416;2023-07-09T13:25:42;6.32;;;4.78;;
38358;SDS011;42072;48.044;14.416;2023-07-09T13:30:46;7.88;;;4.75;;
38358;SDS011;42072;48.044;14.416;2023-07-09T13:33:17;6.43;;;4.72;;
38358;SDS011;42072;48.044;14.416;2023-07-09T13:35:46;7.00;;;5.15;;
38358;SDS011;42072;48.044;14.416;2023-07-09T13:38:15;6.22;;;4.78;;
38358;SDS011;42072;48.044;14.416;2023-07-09T13:40:44;6.53;;;5.00;;
38358;SDS011;42072;48.044;14.416;2023-07-09T13:43:14;7.43;;;5.30;;
38358;SDS011;42072;48.044;14.416;2023-07-09T13:45:42;7.15;;;4.80;;
38358;SDS011;42072;48.044;14.416;2023-07-09T13:48:18;7.85;;;5.10;;
38358;SDS011;42072;48.044;14.416;2023-07-09T13:50:48;8.52;;;5.50;;
38358;SDS011;42072;48.044;14.416;2023-07-09T13:53:21;7.25;;;5.32;;
38358;SDS011;42072;48.044;14.416;2023-07-09T13:55:49;7.53;;;5.00;;
38358;SDS011;42072;48.044;14.416;2023-07-09T13:58:19;7.57;;;5.07;;
38358;SDS011;42072;48.044;14.416;2023-07-09T14:00:48;5.57;;;4.97;;
38358;SDS011;42072;48.044;14.416;2023-07-09T14:03:24;6.03;;;4.80;;
38358;SDS011;42072;48.044;14.416;2023-07-09T14:05:53;8.25;;;5.03;;
38358;SDS011;42072;48.044;14.416;2023-07-09T14:08:20;6.15;;;4.82;;
38358;SDS011;42072;48.044;14.416;2023-07-09T14:10:48;6.93;;;5.10;;
38358;SDS011;42072;48.044;14.416;2023-07-09T14:13:17;7.80;;;4.90;;
38358;SDS011;42072;48.044;14.416;2023-07-09T14:15:47;5.93;;;4.82;;
38358;SDS011;42072;48.044;14.416;2023-07-09T14:18:18;7.18;;;5.10;;
38358;SDS011;42072;48.044;14.416;2023-07-09T14:20:47;9.70;;;5.40;;
38358;SDS011;42072;48.044;14.416;2023-07-09T14:23:16;7.32;;;6.50;;
38358;SDS011;42072;48.044;14.416;2023-07-09T14:25:44;7.25;;;5.38;;
38358;SDS011;42072;48.044;14.416;2023-07-09T14:28:17;7.40;;;4.88;;
38358;SDS011;42072;48.044;14.416;2023-07-09T14:30:46;5.88;;;4.65;;
38358;SDS011;42072;48.044;14.416;2023-07-09T14:33:18;5.70;;;5.07;;
38358;SDS011;42072;48.044;14.416;2023-07-09T14:35:48;6.35;;;4.30;;
38358;SDS011;42072;48.044;14.416;2023-07-09T14:38:23;7.28;;;4.75;;
38358;SDS011;42072;48.044;14.416;2023-07-09T14:40:52;6.90;;;4.72;;
38358;SDS011;42072;48.044;14.416;2023-07-09T14:43:22;6.80;;;4.32;;
38358;SDS011;42072;48.044;14.416;2023-07-09T14:45:49;7.80;;;4.88;;
38358;SDS011;42072;48.044;14.416;2023-07-09T14:48:18;7.40;;;4.60;;
38358;SDS011;42072;48.044;14.416;2023-07-09T14:50:46;4.93;;;4.32;;
38358;SDS011;42072;48.044;14.416;2023-07-09T14:55:51;6.85;;;4.80;;
38358;SDS011;42072;48.044;14.416;2023-07-09T14:58:20;6.70;;;4.57;;
38358;SDS011;42072;48.044;14.416;2023-07-09T15:00:49;8.68;;;4.72;;
38358;SDS011;42072;48.044;14.416;2023-07-09T15:03:21;5.60;;;4.78;;
38358;SDS011;42072;48.044;14.416;2023-07-09T15:05:50;5.85;;;4.70;;
38358;SDS011;42072;48.044;14.416;2023-07-09T15:08:19;7.32;;;4.32;;
38358;SDS011;42072;48.044;14.416;2023-07-09T15:10:49;9.57;;;4.88;;
38358;SDS011;42072;48.044;14.416;2023-07-09T15:13:25;7.30;;;4.72;;
38358;SDS011;42072;48.044;14.416;2023-07-09T15:16:00;6.72;;;4.57;;
38358;SDS011;42072;48.044;14.416;2023-07-09T15:18:29;6.15;;;4.57;;
38358;SDS011;42072;48.044;14.416;2023-07-09T15:20:57;8.50;;;4.82;;
38358;SDS011;42072;48.044;14.416;2023-07-09T15:23:27;9.38;;;5.72;;
38358;SDS011;42072;48.044;14.416;2023-07-09T15:25:55;6.50;;;5.07;;
38358;SDS011;42072;48.044;14.416;2023-07-09T15:28:23;6.40;;;4.90;;
38358;SDS011;42072;48.044;14.416;2023-07-09T15:30:51;7.20;;;5.50;;